sensor_id;sensor_type;location;lat;lon;timestamp;P1;durP1;ratioP1;P2;durP2;ratioP2
27612;SDS011;15036;48.094;-1.690;2023-03-04T00:00:25;15.20;;;10.10;;
27612;SDS011;15036;48.094;-1.690;2023-03-04T00:02:50;17.05;;;9.80;;
27612;SDS011;15036;48.094;-1.690;2023-03-04T00:05:16;17.10;;;9.73;;
27612;SDS011;15036;48.094;-1.690;2023-03-04T00:07:41;15.70;;;10.57;;
27612;SDS011;15036;48.094;-1.690;2023-03-04T00:10:07;16.13;;;9.90;;
27612;SDS011;15036;48.094;-1.690;2023-03-04T00:12:33;17.23;;;9.65;;
27612;SDS011;15036;48.094;-1.690;2023-03-04T00:14:58;17.70;;;10.38;;
27612;SDS011;15036;48.094;-1.690;2023-03-04T00:17:23;18.98;;;10.55;;
27612;SDS011;15036;48.094;-1.690;2023-03-04T00:19:49;16.75;;;10.23;;
27612;SDS011;15036;48.094;-1.690;2023-03-04T00:22:14;14.63;;;9.27;;
27612;SDS011;15036;48.094;-1.690;2023-03-04T00:24:39;18.23;;;10.48;;
27612;SDS011;15036;48.094;-1.690;2023-03-04T00:27:05;20.75;;;10.50;;
27612;SDS011;15036;48.094;-1.690;2023-03-04T00:29:30;16.48;;;10.05;;
27612;SDS011;15036;48.094;-1.690;2023-03-04T00:31:56;19.20;;;10.80;;
27612;SDS011;15036;48.094;-1.690;2023-03-04T00:34:21;21.05;;;10.98;;
27612;SDS011;15036;48.094;-1.690;2023-03-04T00:36:47;19.70;;;11.32;;
27612;SDS011;15036;48.094;-1.690;2023-03-04T00:39:12;19.92;;;11.10;;
27612;SDS011;15036;48.094;-1.690;2023-03-04T00:41:38;17.60;;;10.07;;
27612;SDS011;15036;48.094;-1.690;2023-03-04T00:44:04;17.58;;;11.35;;
27612;SDS011;15036;48.094;-1.690;2023-03-04T00:46:29;16.33;;;10.85;;
27612;SDS011;15036;48.094;-1.690;2023-03-04T00:48:55;19.42;;;11.30;;
27612;SDS011;15036;48.094;-1.690;2023-03-04T00:51:21;17.27;;;10.88;;
27612;SDS011;15036;48.094;-1.690;2023-03-04T00:53:47;17.75;;;10.68;;
27612;SDS011;15036;48.094;-1.690;2023-03-04T00:56:12;21.02;;;11.77;;
27612;SDS011;15036;48.094;-1.690;2023-03-04T00:58:38;18.35;;;11.95;;
27612;SDS011;15036;48.094;-1.690;2023-03-04T01:01:04;17.95;;;11.68;;
27612;SDS011;15036;48.094;-1.690;2023-03-04T01:03:30;17.52;;;11.00;;
27612;SDS011;15036;48.094;-1.690;2023-03-04T01:05:57;16.27;;;11.32;;
27612;SDS011;15036;48.094;-1.690;2023-03-04T01:08:23;20.65;;;11.70;;
27612;SDS011;15036;48.094;-1.690;2023-03-04T01:10:49;17.63;;;11.30;;
27612;SDS011;15036;48.094;-1.690;2023-03-04T01:13:14;20.45;;;12.48;;
27612;SDS011;15036;48.094;-1.690;2023-03-04T01:15:40;22.35;;;11.82;;
27612;SDS011;15036;48.094;-1.690;2023-03-04T01:18:05;19.85;;;11.98;;
27612;SDS011;15036;48.094;-1.690;2023-03-04T01:20:31;16.48;;;11.30;;
27612;SDS011;15036;48.094;-1.690;2023-03-04T01:22:56;21.13;;;11.95;;
27612;SDS011;15036;48.094;-1.690;2023-03-04T01:25:21;19.88;;;11.52;;
27612;SDS011;15036;48.094;-1.690;2023-03-04T01:27:47;21.60;;;12.27;;
27612;SDS011;15036;48.094;-1.690;2023-03-04T01:30:12;16.95;;;12.48;;
27612;SDS011;15036;48.094;-1.690;2023-03-04T01:32:37;22.13;;;11.68;;
27612;SDS011;15036;48.094;-1.690;2023-03-04T01:35:03;19.73;;;12.15;;
27612;SDS011;15036;48.094;-1.690;2023-03-04T01:37:28;19.73;;;11.82;;
27612;SDS011;15036;48.094;-1.690;2023-03-04T01:39:54;17.67;;;11.98;;
27612;SDS011;15036;48.094;-1.690;2023-03-04T01:42:20;18.60;;;12.48;;
27612;SDS011;15036;48.094;-1.690;2023-03-04T01:44:47;21.98;;;12.85;;
27612;SDS011;15036;48.094;-1.690;2023-03-04T01:47:15;22.08;;;12.70;;
27612;SDS011;15036;48.094;-1.690;2023-03-04T01:49:41;23.42;;;13.23;;
27612;SDS011;15036;48.094;-1.690;2023-03-04T01:52:09;19.02;;;12.98;;
27612;SDS011;15036;48.094;-1.690;2023-03-04T01:54:37;25.30;;;13.40;;
27612;SDS011;15036;48.094;-1.690;2023-03-04T01:57:06;24.45;;;13.63;;
27612;SDS011;15036;48.094;-1.690;2023-03-04T01:59:41;20.35;;;12.90;;
27612;SDS011;15036;48.094;-1.690;2023-03-04T02:02:06;18.38;;;13.20;;
27612;SDS011;15036;48.094;-1.690;2023-03-04T02:04:32;18.35;;;13.10;;
27612;SDS011;15036;48.094;-1.690;2023-03-04T02:06:58;27.55;;;13.80;;
27612;SDS011;15036;48.094;-1.690;2023-03-04T02:09:25;23.90;;;13.60;;
27612;SDS011;15036;48.094;-1.690;2023-03-04T02:11:51;21.30;;;13.82;;
27612;SDS011;15036;48.094;-1.690;2023-03-04T02:14:16;20.48;;;13.95;;
27612;SDS011;15036;48.094;-1.690;2023-03-04T02:16:43;21.58;;;13.02;;
27612;SDS011;15036;48.094;-1.690;2023-03-04T02:19:12;20.60;;;13.70;;
27612;SDS011;15036;48.094;-1.690;2023-03-04T02:21:44;21.17;;;13.48;;
27612;SDS011;15036;48.094;-1.690;2023-03-04T02:26:39;24.05;;;13.85;;
27612;SDS011;15036;48.094;-1.690;2023-03-04T02:29:07;24.17;;;14.95;;
27612;SDS011;15036;48.094;-1.690;2023-03-04T02:31:36;22.40;;;14.27;;
27612;SDS011;15036;48.094;-1.690;2023-03-04T02:34:16;19.60;;;13.98;;
27612;SDS011;15036;48.094;-1.690;2023-03-04T02:36:44;19.90;;;13.90;;
27612;SDS011;15036;48.094;-1.690;2023-03-04T02:41:38;19.88;;;13.20;;
27612;SDS011;15036;48.094;-1.690;2023-03-04T02:44:09;20.85;;;14.10;;
27612;SDS011;15036;48.094;-1.690;2023-03-04T02:46:44;23.83;;;14.43;;
27612;SDS011;15036;48.094;-1.690;2023-03-04T02:49:09;22.98;;;14.32;;
27612;SDS011;15036;48.094;-1.690;2023-03-04T02:51:35;23.70;;;14.32;;
27612;SDS011;15036;48.094;-1.690;2023-03-04T02:54:00;22.35;;;14.68;;
27612;SDS011;15036;48.094;-1.690;2023-03-04T02:56:26;23.60;;;14.13;;
27612;SDS011;15036;48.094;-1.690;2023-03-04T02:58:51;22.73;;;14.85;;
27612;SDS011;15036;48.094;-1.690;2023-03-04T03:01:16;21.55;;;14.32;;
27612;SDS011;15036;48.094;-1.690;2023-03-04T03:03:42;22.92;;;14.85;;
27612;SDS011;15036;48.094;-1.690;2023-03-04T03:06:07;24.95;;;15.57;;
27612;SDS011;15036;48.094;-1.690;2023-03-04T03:08:33;21.55;;;15.45;;
27612;SDS011;15036;48.094;-1.690;2023-03-04T03:10:58;24.90;;;15.63;;
27612;SDS011;15036;48.094;-1.690;2023-03-04T03:13:23;23.75;;;15.90;;
27612;SDS011;15036;48.094;-1.690;2023-03-04T03:15:49;23.67;;;15.75;;
27612;SDS011;15036;48.094;-1.690;2023-03-04T03:18:14;25.30;;;15.23;;
27612;SDS011;15036;48.094;-1.690;2023-03-04T03:20:40;25.58;;;15.55;;
27612;SDS011;15036;48.094;-1.690;2023-03-04T03:23:06;23.30;;;15.80;;
27612;SDS011;15036;48.094;-1.690;2023-03-04T03:25:31;25.02;;;16.10;;
27612;SDS011;15036;48.094;-1.690;2023-03-04T03:27:56;25.30;;;16.15;;
27612;SDS011;15036;48.094;-1.690;2023-03-04T03:30:22;24.67;;;16.70;;
27612;SDS011;15036;48.094;-1.690;2023-03-04T03:32:47;27.35;;;16.70;;
27612;SDS011;15036;48.094;-1.690;2023-03-04T03:35:13;23.40;;;16.88;;
27612;SDS011;15036;48.094;-1.690;2023-03-04T03:37:38;28.25;;;16.70;;
27612;SDS011;15036;48.094;-1.690;2023-03-04T03:40:04;27.08;;;15.88;;
27612;SDS011;15036;48.094;-1.690;2023-03-04T03:42:29;26.10;;;16.55;;
27612;SDS011;15036;48.094;-1.690;2023-03-04T03:44:55;26.73;;;16.98;;
27612;SDS011;15036;48.094;-1.690;2023-03-04T03:47:20;20.80;;;16.45;;
27612;SDS011;15036;48.094;-1.690;2023-03-04T03:49:46;26.25;;;16.15;;
27612;SDS011;15036;48.094;-1.690;2023-03-04T03:52:11;23.27;;;16.38;;
27612;SDS011;15036;48.094;-1.690;2023-03-04T03:54:37;24.17;;;16.75;;
27612;SDS011;15036;48.094;-1.690;2023-03-04T03:57:02;22.92;;;16.67;;
27612;SDS011;15036;48.094;-1.690;2023-03-04T03:59:27;24.13;;;16.60;;
27612;SDS011;15036;48.094;-1.690;2023-03-04T04:01:53;25.63;;;17.50;;
27612;SDS011;15036;48.094;-1.690;2023-03-04T04:04:18;24.63;;;16.88;;
27612;SDS011;15036;48.094;-1.690;2023-03-04T04:06:44;26.73;;;16.98;;
27612;SDS011;15036;48.094;-1.690;2023-03-04T04:09:09;30.45;;;17.55;;
27612;SDS011;15036;48.094;-1.690;2023-03-04T04:11:34;25.85;;;17.80;;
27612;SDS011;15036;48.094;-1.690;2023-03-04T04:14:00;28.02;;;17.75;;
27612;SDS011;15036;48.094;-1.690;2023-03-04T04:16:25;29.35;;;18.50;;
27612;SDS011;15036;48.094;-1.690;2023-03-04T04:18:50;29.35;;;19.17;;
27612;SDS011;15036;48.094;-1.690;2023-03-04T04:21:16;28.48;;;18.17;;
27612;SDS011;15036;48.094;-1.690;2023-03-04T04:23:41;30.67;;;18.77;;
27612;SDS011;15036;48.094;-1.690;2023-03-04T04:26:07;23.73;;;17.60;;
27612;SDS011;15036;48.094;-1.690;2023-03-04T04:28:32;27.27;;;17.70;;
27612;SDS011;15036;48.094;-1.690;2023-03-04T04:30:57;29.88;;;16.85;;
27612;SDS011;15036;48.094;-1.690;2023-03-04T04:33:24;28.15;;;19.35;;
27612;SDS011;15036;48.094;-1.690;2023-03-04T04:35:49;25.80;;;16.98;;
27612;SDS011;15036;48.094;-1.690;2023-03-04T04:38:15;26.77;;;18.02;;
27612;SDS011;15036;48.094;-1.690;2023-03-04T04:40:40;28.60;;;17.95;;
27612;SDS011;15036;48.094;-1.690;2023-03-04T04:43:07;29.27;;;18.08;;
27612;SDS011;15036;48.094;-1.690;2023-03-04T04:45:32;29.52;;;19.30;;
27612;SDS011;15036;48.094;-1.690;2023-03-04T04:47:58;32.38;;;20.40;;
27612;SDS011;15036;48.094;-1.690;2023-03-04T04:50:24;28.25;;;19.15;;
27612;SDS011;15036;48.094;-1.690;2023-03-04T04:52:51;27.45;;;18.30;;
27612;SDS011;15036;48.094;-1.690;2023-03-04T04:55:17;28.02;;;19.13;;
27612;SDS011;15036;48.094;-1.690;2023-03-04T04:57:42;25.50;;;17.77;;
27612;SDS011;15036;48.094;-1.690;2023-03-04T05:00:08;28.48;;;18.92;;
27612;SDS011;15036;48.094;-1.690;2023-03-04T05:02:35;30.75;;;18.83;;
27612;SDS011;15036;48.094;-1.690;2023-03-04T05:05:04;27.48;;;19.02;;
27612;SDS011;15036;48.094;-1.690;2023-03-04T05:07:31;25.30;;;18.07;;
27612;SDS011;15036;48.094;-1.690;2023-03-04T05:09:59;28.00;;;18.75;;
27612;SDS011;15036;48.094;-1.690;2023-03-04T05:12:24;27.92;;;18.88;;
27612;SDS011;15036;48.094;-1.690;2023-03-04T05:14:49;28.58;;;19.15;;
27612;SDS011;15036;48.094;-1.690;2023-03-04T05:17:15;26.80;;;18.67;;
27612;SDS011;15036;48.094;-1.690;2023-03-04T05:19:41;28.98;;;18.80;;
27612;SDS011;15036;48.094;-1.690;2023-03-04T05:22:06;29.90;;;18.65;;
27612;SDS011;15036;48.094;-1.690;2023-03-04T05:24:31;30.80;;;19.83;;
27612;SDS011;15036;48.094;-1.690;2023-03-04T05:26:58;31.00;;;20.17;;
27612;SDS011;15036;48.094;-1.690;2023-03-04T05:29:24;34.10;;;19.92;;
27612;SDS011;15036;48.094;-1.690;2023-03-04T05:31:49;33.30;;;19.92;;
27612;SDS011;15036;48.094;-1.690;2023-03-04T05:34:14;32.00;;;20.40;;
27612;SDS011;15036;48.094;-1.690;2023-03-04T05:36:40;32.08;;;20.00;;
27612;SDS011;15036;48.094;-1.690;2023-03-04T05:39:05;29.73;;;19.80;;
27612;SDS011;15036;48.094;-1.690;2023-03-04T05:41:31;30.25;;;20.25;;
27612;SDS011;15036;48.094;-1.690;2023-03-04T05:43:56;27.98;;;20.13;;
27612;SDS011;15036;48.094;-1.690;2023-03-04T05:46:21;33.85;;;19.98;;
27612;SDS011;15036;48.094;-1.690;2023-03-04T05:48:49;34.42;;;21.65;;
27612;SDS011;15036;48.094;-1.690;2023-03-04T05:51:16;34.47;;;21.58;;
27612;SDS011;15036;48.094;-1.690;2023-03-04T05:53:41;32.85;;;21.17;;
27612;SDS011;15036;48.094;-1.690;2023-03-04T05:56:10;38.70;;;21.45;;
27612;SDS011;15036;48.094;-1.690;2023-03-04T05:58:38;33.25;;;21.70;;
27612;SDS011;15036;48.094;-1.690;2023-03-04T06:01:04;33.00;;;21.90;;
27612;SDS011;15036;48.094;-1.690;2023-03-04T06:03:30;32.92;;;21.35;;
27612;SDS011;15036;48.094;-1.690;2023-03-04T06:05:56;29.85;;;20.48;;
27612;SDS011;15036;48.094;-1.690;2023-03-04T06:08:22;32.83;;;22.00;;
27612;SDS011;15036;48.094;-1.690;2023-03-04T06:10:48;32.53;;;21.75;;
27612;SDS011;15036;48.094;-1.690;2023-03-04T06:13:16;35.10;;;22.77;;
27612;SDS011;15036;48.094;-1.690;2023-03-04T06:15:42;31.17;;;22.25;;
27612;SDS011;15036;48.094;-1.690;2023-03-04T06:18:07;31.58;;;21.33;;
27612;SDS011;15036;48.094;-1.690;2023-03-04T06:20:33;33.30;;;21.80;;
27612;SDS011;15036;48.094;-1.690;2023-03-04T06:22:58;28.98;;;20.67;;
27612;SDS011;15036;48.094;-1.690;2023-03-04T06:25:24;31.33;;;22.08;;
27612;SDS011;15036;48.094;-1.690;2023-03-04T06:27:49;30.90;;;21.60;;
27612;SDS011;15036;48.094;-1.690;2023-03-04T06:30:15;31.38;;;20.67;;
27612;SDS011;15036;48.094;-1.690;2023-03-04T06:32:40;31.75;;;22.15;;
27612;SDS011;15036;48.094;-1.690;2023-03-04T06:35:08;32.55;;;21.60;;
27612;SDS011;15036;48.094;-1.690;2023-03-04T06:37:37;30.45;;;21.35;;
27612;SDS011;15036;48.094;-1.690;2023-03-04T06:40:03;35.33;;;23.27;;
27612;SDS011;15036;48.094;-1.690;2023-03-04T06:42:29;32.45;;;21.42;;
27612;SDS011;15036;48.094;-1.690;2023-03-04T06:44:54;33.55;;;21.75;;
27612;SDS011;15036;48.094;-1.690;2023-03-04T06:47:20;32.25;;;21.48;;
27612;SDS011;15036;48.094;-1.690;2023-03-04T06:49:45;31.80;;;21.35;;
27612;SDS011;15036;48.094;-1.690;2023-03-04T06:52:10;33.40;;;21.00;;
27612;SDS011;15036;48.094;-1.690;2023-03-04T06:54:37;32.13;;;21.40;;
27612;SDS011;15036;48.094;-1.690;2023-03-04T06:57:02;31.77;;;21.23;;
27612;SDS011;15036;48.094;-1.690;2023-03-04T06:59:28;29.40;;;20.90;;
27612;SDS011;15036;48.094;-1.690;2023-03-04T07:01:53;33.08;;;22.05;;
27612;SDS011;15036;48.094;-1.690;2023-03-04T07:04:18;30.77;;;21.55;;
27612;SDS011;15036;48.094;-1.690;2023-03-04T07:06:44;31.40;;;20.60;;
27612;SDS011;15036;48.094;-1.690;2023-03-04T07:09:09;32.15;;;20.80;;
27612;SDS011;15036;48.094;-1.690;2023-03-04T07:11:35;30.75;;;19.98;;
27612;SDS011;15036;48.094;-1.690;2023-03-04T07:14:00;30.90;;;21.65;;
27612;SDS011;15036;48.094;-1.690;2023-03-04T07:16:25;30.40;;;20.42;;
27612;SDS011;15036;48.094;-1.690;2023-03-04T07:18:51;32.00;;;21.52;;
27612;SDS011;15036;48.094;-1.690;2023-03-04T07:21:17;29.73;;;20.90;;
27612;SDS011;15036;48.094;-1.690;2023-03-04T07:23:42;31.27;;;21.45;;
27612;SDS011;15036;48.094;-1.690;2023-03-04T07:26:08;32.80;;;21.33;;
27612;SDS011;15036;48.094;-1.690;2023-03-04T07:28:34;33.80;;;21.45;;
27612;SDS011;15036;48.094;-1.690;2023-03-04T07:31:06;29.88;;;20.75;;
27612;SDS011;15036;48.094;-1.690;2023-03-04T07:33:54;30.55;;;20.70;;
27612;SDS011;15036;48.094;-1.690;2023-03-04T07:36:21;30.92;;;21.08;;
27612;SDS011;15036;48.094;-1.690;2023-03-04T07:38:46;29.23;;;20.55;;
27612;SDS011;15036;48.094;-1.690;2023-03-04T07:41:13;30.75;;;21.38;;
27612;SDS011;15036;48.094;-1.690;2023-03-04T07:43:39;30.85;;;20.65;;
27612;SDS011;15036;48.094;-1.690;2023-03-04T07:46:05;28.77;;;20.20;;
27612;SDS011;15036;48.094;-1.690;2023-03-04T07:48:30;31.48;;;20.23;;
27612;SDS011;15036;48.094;-1.690;2023-03-04T07:51:29;27.67;;;19.63;;
27612;SDS011;15036;48.094;-1.690;2023-03-04T07:53:50;30.80;;;19.48;;
27612;SDS011;15036;48.094;-1.690;2023-03-04T07:56:18;34.05;;;20.60;;
27612;SDS011;15036;48.094;-1.690;2023-03-04T07:58:45;29.05;;;20.05;;
27612;SDS011;15036;48.094;-1.690;2023-03-04T08:01:11;30.05;;;20.10;;
27612;SDS011;15036;48.094;-1.690;2023-03-04T08:03:42;28.50;;;19.33;;
27612;SDS011;15036;48.094;-1.690;2023-03-04T08:06:08;27.70;;;19.60;;
27612;SDS011;15036;48.094;-1.690;2023-03-04T08:08:36;27.70;;;19.52;;
27612;SDS011;15036;48.094;-1.690;2023-03-04T08:11:05;29.48;;;18.80;;
27612;SDS011;15036;48.094;-1.690;2023-03-04T08:13:32;30.45;;;19.75;;
27612;SDS011;15036;48.094;-1.690;2023-03-04T08:15:58;32.40;;;20.42;;
27612;SDS011;15036;48.094;-1.690;2023-03-04T08:18:23;28.58;;;19.98;;
27612;SDS011;15036;48.094;-1.690;2023-03-04T08:20:49;27.83;;;19.30;;
27612;SDS011;15036;48.094;-1.690;2023-03-04T08:23:14;29.98;;;20.30;;
27612;SDS011;15036;48.094;-1.690;2023-03-04T08:25:40;26.10;;;18.45;;
27612;SDS011;15036;48.094;-1.690;2023-03-04T08:28:07;29.85;;;20.48;;
27612;SDS011;15036;48.094;-1.690;2023-03-04T08:30:33;31.23;;;19.60;;
27612;SDS011;15036;48.094;-1.690;2023-03-04T08:33:00;28.58;;;21.23;;
27612;SDS011;15036;48.094;-1.690;2023-03-04T08:35:26;31.77;;;20.63;;
27612;SDS011;15036;48.094;-1.690;2023-03-04T08:37:52;26.35;;;18.95;;
27612;SDS011;15036;48.094;-1.690;2023-03-04T08:40:17;30.05;;;18.60;;
27612;SDS011;15036;48.094;-1.690;2023-03-04T08:42:43;29.10;;;19.60;;
27612;SDS011;15036;48.094;-1.690;2023-03-04T08:45:08;25.40;;;18.13;;
27612;SDS011;15036;48.094;-1.690;2023-03-04T08:47:34;24.73;;;17.60;;
27612;SDS011;15036;48.094;-1.690;2023-03-04T08:50:00;26.85;;;18.00;;
27612;SDS011;15036;48.094;-1.690;2023-03-04T08:52:27;25.65;;;17.05;;
27612;SDS011;15036;48.094;-1.690;2023-03-04T08:54:54;26.25;;;17.15;;
27612;SDS011;15036;48.094;-1.690;2023-03-04T08:57:19;21.85;;;16.30;;
27612;SDS011;15036;48.094;-1.690;2023-03-04T08:59:44;23.23;;;16.60;;
27612;SDS011;15036;48.094;-1.690;2023-03-04T09:02:10;26.38;;;16.52;;
27612;SDS011;15036;48.094;-1.690;2023-03-04T09:04:35;22.40;;;15.57;;
27612;SDS011;15036;48.094;-1.690;2023-03-04T09:07:00;22.30;;;15.60;;
27612;SDS011;15036;48.094;-1.690;2023-03-04T09:09:26;22.83;;;16.10;;
27612;SDS011;15036;48.094;-1.690;2023-03-04T09:11:51;22.35;;;15.60;;
27612;SDS011;15036;48.094;-1.690;2023-03-04T09:14:17;23.25;;;15.60;;
27612;SDS011;15036;48.094;-1.690;2023-03-04T09:16:42;23.02;;;15.57;;
27612;SDS011;15036;48.094;-1.690;2023-03-04T09:19:07;22.15;;;14.75;;
27612;SDS011;15036;48.094;-1.690;2023-03-04T09:21:33;18.80;;;14.13;;
27612;SDS011;15036;48.094;-1.690;2023-03-04T09:23:58;22.92;;;14.77;;
27612;SDS011;15036;48.094;-1.690;2023-03-04T09:26:25;18.92;;;14.60;;
27612;SDS011;15036;48.094;-1.690;2023-03-04T09:28:52;20.30;;;14.05;;
27612;SDS011;15036;48.094;-1.690;2023-03-04T09:31:19;18.92;;;13.43;;
27612;SDS011;15036;48.094;-1.690;2023-03-04T09:33:45;20.60;;;13.02;;
27612;SDS011;15036;48.094;-1.690;2023-03-04T09:36:11;20.92;;;12.57;;
27612;SDS011;15036;48.094;-1.690;2023-03-04T09:38:37;17.73;;;11.52;;
27612;SDS011;15036;48.094;-1.690;2023-03-04T09:41:05;15.38;;;9.73;;
27612;SDS011;15036;48.094;-1.690;2023-03-04T09:43:33;19.52;;;9.38;;
27612;SDS011;15036;48.094;-1.690;2023-03-04T09:46:03;16.25;;;9.45;;
27612;SDS011;15036;48.094;-1.690;2023-03-04T09:48:44;14.45;;;9.18;;
27612;SDS011;15036;48.094;-1.690;2023-03-04T09:54:06;14.95;;;8.88;;
27612;SDS011;15036;48.094;-1.690;2023-03-04T09:56:39;17.08;;;9.90;;
27612;SDS011;15036;48.094;-1.690;2023-03-04T10:01:54;18.13;;;10.93;;
27612;SDS011;15036;48.094;-1.690;2023-03-04T10:04:33;21.33;;;11.00;;
27612;SDS011;15036;48.094;-1.690;2023-03-04T10:07:04;18.45;;;11.63;;
27612;SDS011;15036;48.094;-1.690;2023-03-04T10:09:49;22.77;;;12.20;;
27612;SDS011;15036;48.094;-1.690;2023-03-04T10:12:28;18.67;;;12.18;;
27612;SDS011;15036;48.094;-1.690;2023-03-04T10:15:40;17.08;;;10.57;;
27612;SDS011;15036;48.094;-1.690;2023-03-04T10:17:53;17.55;;;10.60;;
27612;SDS011;15036;48.094;-1.690;2023-03-04T10:20:25;20.33;;;11.10;;
27612;SDS011;15036;48.094;-1.690;2023-03-04T10:23:01;17.00;;;10.50;;
27612;SDS011;15036;48.094;-1.690;2023-03-04T10:25:33;16.45;;;9.77;;
27612;SDS011;15036;48.094;-1.690;2023-03-04T10:28:10;20.75;;;9.65;;
27612;SDS011;15036;48.094;-1.690;2023-03-04T10:30:59;18.98;;;10.55;;
27612;SDS011;15036;48.094;-1.690;2023-03-04T10:33:33;18.83;;;9.63;;
27612;SDS011;15036;48.094;-1.690;2023-03-04T10:38:53;10.90;;;7.03;;
27612;SDS011;15036;48.094;-1.690;2023-03-04T10:41:22;18.25;;;7.43;;
27612;SDS011;15036;48.094;-1.690;2023-03-04T10:44:00;17.55;;;7.55;;
27612;SDS011;15036;48.094;-1.690;2023-03-04T10:46:28;15.05;;;7.45;;
27612;SDS011;15036;48.094;-1.690;2023-03-04T10:48:55;14.70;;;8.30;;
27612;SDS011;15036;48.094;-1.690;2023-03-04T10:51:27;14.35;;;7.68;;
27612;SDS011;15036;48.094;-1.690;2023-03-04T10:53:57;17.42;;;8.20;;
27612;SDS011;15036;48.094;-1.690;2023-03-04T10:56:39;13.18;;;7.40;;
27612;SDS011;15036;48.094;-1.690;2023-03-04T10:59:24;14.27;;;7.70;;
27612;SDS011;15036;48.094;-1.690;2023-03-04T11:01:54;18.52;;;8.00;;
27612;SDS011;15036;48.094;-1.690;2023-03-04T11:04:22;14.10;;;8.15;;
27612;SDS011;15036;48.094;-1.690;2023-03-04T11:06:51;17.15;;;8.57;;
27612;SDS011;15036;48.094;-1.690;2023-03-04T11:09:22;15.35;;;8.10;;
27612;SDS011;15036;48.094;-1.690;2023-03-04T11:11:53;12.43;;;6.95;;
27612;SDS011;15036;48.094;-1.690;2023-03-04T11:16:52;14.80;;;7.10;;
27612;SDS011;15036;48.094;-1.690;2023-03-04T11:19:39;12.02;;;6.90;;
27612;SDS011;15036;48.094;-1.690;2023-03-04T11:22:08;14.15;;;7.60;;
27612;SDS011;15036;48.094;-1.690;2023-03-04T11:24:38;15.95;;;7.68;;
27612;SDS011;15036;48.094;-1.690;2023-03-04T11:27:09;12.73;;;7.03;;
27612;SDS011;15036;48.094;-1.690;2023-03-04T11:29:44;13.23;;;7.78;;
27612;SDS011;15036;48.094;-1.690;2023-03-04T11:32:23;13.00;;;6.93;;
27612;SDS011;15036;48.094;-1.690;2023-03-04T11:35:00;13.40;;;7.13;;
27612;SDS011;15036;48.094;-1.690;2023-03-04T11:37:49;14.93;;;7.53;;
27612;SDS011;15036;48.094;-1.690;2023-03-04T11:40:27;10.77;;;7.47;;
27612;SDS011;15036;48.094;-1.690;2023-03-04T11:42:55;16.20;;;7.38;;
27612;SDS011;15036;48.094;-1.690;2023-03-04T11:45:30;10.90;;;6.90;;
27612;SDS011;15036;48.094;-1.690;2023-03-04T11:50:50;17.20;;;6.93;;
27612;SDS011;15036;48.094;-1.690;2023-03-04T11:53:24;11.20;;;7.10;;
27612;SDS011;15036;48.094;-1.690;2023-03-04T11:59:00;14.52;;;6.40;;
27612;SDS011;15036;48.094;-1.690;2023-03-04T12:01:46;12.30;;;5.88;;
27612;SDS011;15036;48.094;-1.690;2023-03-04T12:04:39;11.23;;;5.75;;
27612;SDS011;15036;48.094;-1.690;2023-03-04T12:09:45;12.07;;;5.32;;
27612;SDS011;15036;48.094;-1.690;2023-03-04T12:12:40;10.90;;;4.63;;
27612;SDS011;15036;48.094;-1.690;2023-03-04T12:15:31;10.23;;;4.65;;
27612;SDS011;15036;48.094;-1.690;2023-03-04T12:20:41;6.25;;;4.15;;
27612;SDS011;15036;48.094;-1.690;2023-03-04T12:25:54;8.63;;;5.20;;
27612;SDS011;15036;48.094;-1.690;2023-03-04T12:28:52;11.02;;;5.38;;
27612;SDS011;15036;48.094;-1.690;2023-03-04T12:31:35;9.77;;;5.00;;
27612;SDS011;15036;48.094;-1.690;2023-03-04T12:39:43;13.60;;;5.68;;
27612;SDS011;15036;48.094;-1.690;2023-03-04T12:42:24;10.25;;;5.65;;
27612;SDS011;15036;48.094;-1.690;2023-03-04T12:53:16;10.73;;;5.05;;
27612;SDS011;15036;48.094;-1.690;2023-03-04T12:55:57;11.70;;;5.15;;
27612;SDS011;15036;48.094;-1.690;2023-03-04T12:58:27;10.65;;;4.68;;
27612;SDS011;15036;48.094;-1.690;2023-03-04T13:01:13;12.68;;;5.03;;
27612;SDS011;15036;48.094;-1.690;2023-03-04T13:06:48;8.00;;;3.78;;
27612;SDS011;15036;48.094;-1.690;2023-03-04T13:09:23;10.68;;;4.88;;
27612;SDS011;15036;48.094;-1.690;2023-03-04T13:11:54;10.45;;;4.30;;
27612;SDS011;15036;48.094;-1.690;2023-03-04T13:14:28;8.40;;;4.25;;
27612;SDS011;15036;48.094;-1.690;2023-03-04T13:16:56;12.38;;;4.93;;
27612;SDS011;15036;48.094;-1.690;2023-03-04T14:06:47;13.95;;;8.85;;
27612;SDS011;15036;48.094;-1.690;2023-03-04T14:09:14;18.40;;;10.20;;
27612;SDS011;15036;48.094;-1.690;2023-03-04T14:11:44;13.57;;;8.40;;
27612;SDS011;15036;48.094;-1.690;2023-03-04T14:14:11;14.00;;;8.52;;
27612;SDS011;15036;48.094;-1.690;2023-03-04T14:16:44;15.73;;;8.75;;
27612;SDS011;15036;48.094;-1.690;2023-03-04T14:19:15;14.55;;;8.07;;
27612;SDS011;15036;48.094;-1.690;2023-03-04T14:21:46;16.25;;;9.27;;
27612;SDS011;15036;48.094;-1.690;2023-03-04T14:24:20;11.73;;;7.90;;
27612;SDS011;15036;48.094;-1.690;2023-03-04T14:26:48;15.60;;;8.45;;
27612;SDS011;15036;48.094;-1.690;2023-03-04T14:29:24;16.83;;;9.10;;
27612;SDS011;15036;48.094;-1.690;2023-03-04T14:31:52;16.33;;;7.70;;
27612;SDS011;15036;48.094;-1.690;2023-03-04T14:34:23;13.85;;;7.50;;
27612;SDS011;15036;48.094;-1.690;2023-03-04T14:36:52;13.77;;;7.47;;
27612;SDS011;15036;48.094;-1.690;2023-03-04T14:39:17;12.18;;;7.72;;
27612;SDS011;15036;48.094;-1.690;2023-03-04T14:41:45;12.60;;;6.95;;
27612;SDS011;15036;48.094;-1.690;2023-03-04T14:44:22;12.82;;;7.18;;
27612;SDS011;15036;48.094;-1.690;2023-03-04T14:47:17;13.82;;;7.25;;
27612;SDS011;15036;48.094;-1.690;2023-03-04T14:49:47;11.85;;;7.03;;
27612;SDS011;15036;48.094;-1.690;2023-03-04T14:57:43;13.90;;;7.00;;
27612;SDS011;15036;48.094;-1.690;2023-03-04T15:00:14;19.55;;;7.13;;
27612;SDS011;15036;48.094;-1.690;2023-03-04T15:02:40;11.40;;;7.35;;
27612;SDS011;15036;48.094;-1.690;2023-03-04T15:05:07;13.25;;;7.03;;
27612;SDS011;15036;48.094;-1.690;2023-03-04T15:07:35;14.85;;;7.53;;
27612;SDS011;15036;48.094;-1.690;2023-03-04T15:10:06;12.07;;;7.20;;
27612;SDS011;15036;48.094;-1.690;2023-03-04T15:12:36;12.35;;;6.40;;
27612;SDS011;15036;48.094;-1.690;2023-03-04T15:15:04;9.15;;;6.20;;
27612;SDS011;15036;48.094;-1.690;2023-03-04T15:18:00;13.27;;;6.78;;
27612;SDS011;15036;48.094;-1.690;2023-03-04T15:20:28;15.32;;;7.50;;
27612;SDS011;15036;48.094;-1.690;2023-03-04T15:25:20;15.32;;;7.95;;
27612;SDS011;15036;48.094;-1.690;2023-03-04T15:27:46;13.75;;;7.43;;
27612;SDS011;15036;48.094;-1.690;2023-03-04T15:30:26;14.82;;;7.88;;
27612;SDS011;15036;48.094;-1.690;2023-03-04T15:32:54;16.40;;;7.75;;
27612;SDS011;15036;48.094;-1.690;2023-03-04T15:35:21;11.82;;;7.10;;
27612;SDS011;15036;48.094;-1.690;2023-03-04T15:37:47;15.32;;;7.30;;
27612;SDS011;15036;48.094;-1.690;2023-03-04T15:40:32;11.27;;;6.72;;
27612;SDS011;15036;48.094;-1.690;2023-03-04T15:43:04;13.82;;;6.30;;
27612;SDS011;15036;48.094;-1.690;2023-03-04T15:45:35;12.18;;;6.22;;
27612;SDS011;15036;48.094;-1.690;2023-03-04T15:48:06;9.88;;;6.00;;
27612;SDS011;15036;48.094;-1.690;2023-03-04T15:50:37;11.55;;;6.65;;
27612;SDS011;15036;48.094;-1.690;2023-03-04T15:53:11;9.98;;;6.00;;
27612;SDS011;15036;48.094;-1.690;2023-03-04T15:55:42;9.88;;;5.68;;
27612;SDS011;15036;48.094;-1.690;2023-03-04T15:58:08;11.55;;;5.95;;
27612;SDS011;15036;48.094;-1.690;2023-03-04T16:00:35;12.13;;;5.90;;
27612;SDS011;15036;48.094;-1.690;2023-03-04T16:03:01;10.88;;;5.82;;